createdAt,value
2023-02-09T00:01:57.101Z,-26.08
2023-02-09T00:07:01.733Z,-26.01
2023-02-09T00:12:24.275Z,-26.04
2023-02-09T00:17:28.161Z,-26.08
2023-02-09T00:22:32.527Z,-26.13
2023-02-09T00:27:36.325Z,-26.16
2023-02-09T00:32:40.363Z,-26.19
2023-02-09T00:37:44.428Z,-26.31
2023-02-09T00:42:49.904Z,-26.48
2023-02-09T00:47:54.100Z,-26.47
2023-02-09T00:52:57.934Z,-26.61
2023-02-09T00:58:01.782Z,-26.73
2023-02-09T01:03:06.097Z,-27.18
2023-02-09T01:08:10.224Z,-26.82
2023-02-09T01:13:14.124Z,-26.87
2023-02-09T01:18:18.615Z,-26.95
2023-02-09T01:23:23.392Z,-27.02
2023-02-09T01:28:26.852Z,-27.11
2023-02-09T01:33:32.267Z,-27.37
2023-02-09T01:38:36.115Z,-27.44
2023-02-09T01:43:54.274Z,-27.45
2023-02-09T01:49:28.101Z,-27.52
2023-02-09T01:54:43.195Z,-27.62
2023-02-09T01:59:53.024Z,-27.72
2023-02-09T02:04:57.093Z,-27.92
2023-02-09T02:10:03.166Z,-27.79
2023-02-09T02:15:07.922Z,-27.87
2023-02-09T02:20:30.925Z,-27.93
2023-02-09T02:25:54.394Z,-28.07
2023-02-09T02:31:29.645Z,-27.96
2023-02-09T02:36:57.816Z,-27.90
2023-02-09T02:42:29.129Z,-27.67
2023-02-09T02:47:37.555Z,-27.54
2023-02-09T02:52:46.112Z,-27.50
2023-02-09T02:57:56.469Z,-27.24
2023-02-09T03:03:05.783Z,-26.95
2023-02-09T03:08:09.665Z,-26.75
2023-02-09T03:13:39.938Z,-26.60
2023-02-09T03:19:17.139Z,-26.47
2023-02-09T03:24:32.004Z,-26.30
2023-02-09T03:29:37.683Z,-26.16
2023-02-09T03:34:41.567Z,-26.40
2023-02-09T03:39:45.837Z,-25.52
2023-02-09T03:44:49.746Z,-25.32
2023-02-09T03:49:53.710Z,-25.04
2023-02-09T03:54:57.445Z,-24.72
2023-02-09T04:00:02.405Z,-24.68
2023-02-09T04:05:15.551Z,-24.22
2023-02-09T04:10:20.460Z,-23.92
2023-02-09T04:15:24.622Z,-24.21
2023-02-09T04:20:28.539Z,-23.65
2023-02-09T04:25:32.578Z,-23.31
2023-02-09T04:30:36.640Z,-23.43
2023-02-09T04:36:41.097Z,-22.77
2023-02-09T04:41:44.928Z,-22.42
2023-02-09T04:46:48.706Z,-22.15
2023-02-09T04:51:52.567Z,-21.88
2023-02-09T04:57:16.349Z,-21.62
2023-02-09T05:02:20.129Z,-21.37
2023-02-09T05:07:24.064Z,-21.10
2023-02-09T05:12:27.896Z,-20.86
2023-02-09T05:17:35.178Z,-20.68
2023-02-09T05:22:38.927Z,-20.50
2023-02-09T05:27:42.903Z,-20.43
2023-02-09T05:32:46.893Z,-20.35
2023-02-09T05:37:50.771Z,-20.68
2023-02-09T05:42:55.851Z,-20.20
2023-02-09T05:47:59.763Z,-20.22
2023-02-09T05:53:05.214Z,-20.06
2023-02-09T05:58:09.016Z,-19.99
2023-02-09T06:03:13.082Z,-20.04
2023-02-09T06:08:16.914Z,-20.36
2023-02-09T06:13:21.137Z,-19.68
2023-02-09T06:18:25.281Z,-19.69
2023-02-09T06:23:29.085Z,-20.07
2023-02-09T06:28:33.261Z,-19.48
2023-02-09T06:33:38.846Z,-19.38
2023-02-09T06:38:43.511Z,-19.77
2023-02-09T06:43:47.261Z,-19.18
2023-02-09T06:48:51.278Z,-19.10
2023-02-09T06:53:57.096Z,-19.15
2023-02-09T06:59:00.968Z,-18.93
2023-02-09T07:04:04.980Z,-18.82
2023-02-09T07:09:09.381Z,-18.78
2023-02-09T07:14:13.423Z,-18.77
2023-02-09T07:19:17.447Z,-18.72
2023-02-09T07:24:21.357Z,-18.81
2023-02-09T07:29:25.315Z,-18.64
2023-02-09T07:34:29.225Z,-18.53
2023-02-09T07:39:33.738Z,-18.45
2023-02-09T07:44:37.551Z,-18.39
2023-02-09T07:49:41.667Z,-18.34
2023-02-09T07:54:45.695Z,-18.27
2023-02-09T07:59:49.442Z,-18.25
2023-02-09T08:04:56.128Z,-18.23
2023-02-09T08:09:59.519Z,-18.20
2023-02-09T08:15:04.352Z,-18.20
2023-02-09T08:20:15.408Z,-18.10
2023-02-09T08:25:23.351Z,-18.15
2023-02-09T08:30:27.220Z,-18.10
2023-02-09T08:35:31.399Z,-18.07
2023-02-09T08:40:41.965Z,-17.99
2023-02-09T08:45:46.925Z,-18.34
2023-02-09T08:50:51.032Z,-18.35
2023-02-09T08:55:55.185Z,-17.86
2023-02-09T09:01:00.556Z,-17.75
2023-02-09T09:06:07.505Z,-17.68
2023-02-09T09:11:13.625Z,-17.55
2023-02-09T09:16:20.391Z,-17.50
2023-02-09T09:21:27.602Z,-17.59
2023-02-09T09:26:31.459Z,-17.47
2023-02-09T09:31:35.626Z,-17.50
2023-02-09T09:36:39.510Z,-17.85
2023-02-09T09:41:46.762Z,-17.49
2023-02-09T09:46:54.533Z,-17.50
2023-02-09T09:52:06.365Z,-17.50
2023-02-09T09:57:26.506Z,-17.87
2023-02-09T10:02:34.552Z,-17.37
2023-02-09T10:07:41.335Z,-17.29
2023-02-09T10:12:52.187Z,-17.25
2023-02-09T10:17:58.145Z,-17.30
2023-02-09T10:23:02.143Z,-17.24
2023-02-09T10:28:07.705Z,-17.28
2023-02-09T10:33:16.341Z,-17.35
2023-02-09T10:38:23.247Z,-17.48
2023-02-09T10:43:31.626Z,-17.62
2023-02-09T10:48:42.674Z,-17.88
2023-02-09T10:54:07.102Z,-17.94
2023-02-09T10:59:23.625Z,-18.15
2023-02-09T11:04:37.506Z,-18.26
2023-02-09T11:09:51.938Z,-18.42
2023-02-09T11:14:57.179Z,-18.56
2023-02-09T11:20:37.545Z,-18.87
2023-02-09T11:26:02.491Z,-19.05
2023-02-09T11:31:45.003Z,-19.21
2023-02-09T11:37:21.194Z,-19.38
2023-02-09T11:42:45.305Z,-19.55
2023-02-09T11:47:59.082Z,-19.90
2023-02-09T11:53:38.058Z,-20.08
2023-02-09T11:58:52.484Z,-20.31
2023-02-09T12:04:33.683Z,-20.57
2023-02-09T12:10:12.418Z,-20.75
2023-02-09T12:15:28.049Z,-21.00
2023-02-09T12:20:38.124Z,-21.09
2023-02-09T12:26:01.158Z,-21.22
2023-02-09T12:31:17.921Z,-21.65
2023-02-09T12:36:34.948Z,-21.70
2023-02-09T12:41:40.922Z,-21.82
2023-02-09T12:46:56.415Z,-22.13
2023-02-09T12:52:03.301Z,-22.30
2023-02-09T12:57:16.289Z,-22.53
2023-02-09T13:02:25.204Z,-22.77
2023-02-09T13:08:08.790Z,-22.92
2023-02-09T13:13:12.798Z,-22.87
2023-02-09T13:18:25.317Z,-22.91
2023-02-09T13:23:59.502Z,-23.15
2023-02-09T13:29:20.880Z,-23.28
2023-02-09T13:34:36.981Z,-23.42
2023-02-09T13:39:42.649Z,-23.71
2023-02-09T13:44:47.181Z,-23.83
2023-02-09T13:50:03.243Z,-23.97
2023-02-09T13:55:18.902Z,-23.93
2023-02-09T14:00:38.141Z,-24.20
2023-02-09T14:05:49.162Z,-24.23
2023-02-09T14:10:59.258Z,-24.33
2023-02-09T14:16:08.043Z,-25.05
2023-02-09T14:21:16.324Z,-24.72
2023-02-09T14:26:25.370Z,-24.86
2023-02-09T14:31:29.163Z,-25.03
2023-02-09T14:36:38.472Z,-25.09
2023-02-09T14:41:42.297Z,-25.18
2023-02-09T14:47:01.062Z,-25.50
2023-02-09T14:52:14.805Z,-25.66
2023-02-09T14:57:20.962Z,-26.01
2023-02-09T15:02:28.133Z,-25.85
2023-02-09T15:07:37.029Z,-25.89
2023-02-09T15:12:41.507Z,-25.96
2023-02-09T15:17:45.773Z,-25.96
2023-02-09T15:22:49.564Z,-26.54
2023-02-09T15:28:03.612Z,-26.56
2023-02-09T15:33:10.738Z,-26.57
2023-02-09T15:38:17.389Z,-26.54
2023-02-09T15:43:44.178Z,-26.57
2023-02-09T15:48:48.129Z,-26.75
2023-02-09T15:53:53.844Z,-27.00
2023-02-09T15:59:04.216Z,-27.12
2023-02-09T16:04:15.265Z,-27.14
2023-02-09T16:09:24.585Z,-27.09
2023-02-09T16:14:28.977Z,-27.27
2023-02-09T16:19:33.260Z,-27.24
2023-02-09T16:24:48.133Z,-27.34
2023-02-09T16:29:52.071Z,-27.32
2023-02-09T16:35:04.566Z,-27.47
2023-02-09T16:40:17.960Z,-27.57
2023-02-09T16:45:23.537Z,-27.72
2023-02-09T16:50:35.146Z,-27.85
2023-02-09T16:55:42.577Z,-27.90
2023-02-09T17:00:48.282Z,-27.79
2023-02-09T17:05:54.961Z,-27.83
2023-02-09T17:10:59.951Z,-28.05
2023-02-09T17:16:09.736Z,-28.12
2023-02-09T17:21:28.048Z,-28.23
2023-02-09T17:26:32.200Z,-28.26
2023-02-09T17:31:51.884Z,-28.28
2023-02-09T17:36:57.679Z,-28.27
2023-02-09T17:42:01.499Z,-28.46
2023-02-09T17:47:07.083Z,-28.61
2023-02-09T17:52:18.837Z,-28.68
2023-02-09T17:57:22.679Z,-28.71
2023-02-09T18:02:26.607Z,-28.76
2023-02-09T18:07:30.335Z,-28.85
2023-02-09T18:12:35.078Z,-29.49
2023-02-09T18:17:42.781Z,-28.96
2023-02-09T18:22:47.081Z,-29.23
2023-02-09T18:27:52.310Z,-29.13
2023-02-09T18:32:57.668Z,-29.28
2023-02-09T18:38:03.456Z,-29.32
2023-02-09T18:43:08.659Z,-29.38
2023-02-09T18:48:12.740Z,-29.42
2023-02-09T18:53:16.584Z,-29.51
2023-02-09T18:58:20.590Z,-29.53
2023-02-09T19:03:24.699Z,-29.52
2023-02-09T19:08:28.106Z,-29.46
2023-02-09T19:13:34.730Z,-29.46
2023-02-09T19:18:40.195Z,-29.60
2023-02-09T19:23:44.348Z,-29.74
2023-02-09T19:28:49.201Z,-29.95
2023-02-09T19:34:01.958Z,-29.82
2023-02-09T19:39:05.833Z,-29.85
2023-02-09T19:44:10.009Z,-30.03
2023-02-09T19:49:13.903Z,-30.11
2023-02-09T19:54:17.530Z,-30.21
2023-02-09T19:59:21.289Z,-30.25
2023-02-09T20:04:25.171Z,-30.29
2023-02-09T20:09:28.906Z,-30.38
2023-02-09T20:14:33.894Z,-30.45
2023-02-09T20:19:38.083Z,-30.82
2023-02-09T20:24:43.748Z,-30.47
2023-02-09T20:29:47.706Z,-30.45
2023-02-09T20:34:51.222Z,-30.48
2023-02-09T20:39:55.293Z,-30.48
2023-02-09T20:45:17.642Z,-30.40
2023-02-09T20:50:21.495Z,-30.44
2023-02-09T20:55:25.183Z,-30.50
2023-02-09T21:00:29.545Z,-30.59
2023-02-09T21:05:33.395Z,-30.77
2023-02-09T21:10:39.466Z,-30.65
2023-02-09T21:15:43.354Z,-30.67
2023-02-09T21:20:47.091Z,-31.25
2023-02-09T21:25:51.198Z,-30.89
2023-02-09T21:30:55.856Z,-30.88
2023-02-09T21:35:59.645Z,-30.77
2023-02-09T21:41:07.426Z,-30.63
2023-02-09T21:46:17.217Z,-30.56
2023-02-09T21:51:21.317Z,-30.66
2023-02-09T21:56:25.337Z,-30.72
2023-02-09T22:01:31.726Z,-30.81
2023-02-09T22:06:35.757Z,-30.96
2023-02-09T22:11:39.699Z,-30.91
2023-02-09T22:16:44.204Z,-30.98
2023-02-09T22:21:48.240Z,-31.20
2023-02-09T22:26:52.416Z,-31.05
2023-02-09T22:31:57.887Z,-31.08
2023-02-09T22:37:02.245Z,-31.18
2023-02-09T22:42:06.715Z,-31.22
2023-02-09T22:47:10.538Z,-31.18
2023-02-09T22:52:14.384Z,-31.09
2023-02-09T22:57:18.567Z,-31.05
2023-02-09T23:02:22.331Z,-31.03
2023-02-09T23:07:27.092Z,-31.05
2023-02-09T23:12:30.795Z,-31.01
2023-02-09T23:17:34.324Z,-30.95
2023-02-09T23:22:38.233Z,-30.98
2023-02-09T23:27:42.155Z,-31.03
2023-02-09T23:32:45.712Z,-31.00
2023-02-09T23:37:49.519Z,-30.95
2023-02-09T23:42:53.408Z,-30.89
2023-02-09T23:47:57.287Z,-30.90
2023-02-09T23:53:01.120Z,-30.93
2023-02-09T23:58:05.094Z,-30.92
